Time;durP1;ratioP1;P1;durP2;ratioP2;P2;SDS_P1;SDS_P2;PMS_P1;PMS_P2;Temp;Humidity;BMP_temperature;BMP_pressure;BME280_temperature;BME280_humidity;BME280_pressure;Samples;Min_cycle;Max_cycle;Signal;HPM_P1;HPM_P2
2021/12/05 00:17:49;;;;;;;39.58;16.05;;;4.70;99.90;;;;;;5091983;28;20012;-78
2021/12/05 00:22:43;;;;;;;40.83;15.35;;;4.70;99.90;;;;;;5095814;28;20077;-78
2021/12/05 00:25:13;;;;;;;47.15;15.45;;;4.70;99.90;;;;;;5079115;28;20115;-78
2021/12/05 00:27:49;;;;;;;31.13;13.77;;;4.70;99.90;;;;;;5097178;28;20081;-76
2021/12/05 00:33:31;;;;;;;32.60;12.45;;;4.80;99.90;;;;;;5095624;28;20024;-75
2021/12/05 00:36:59;;;;;;;34.40;12.75;;;4.80;99.90;;;;;;5095357;28;20040;-78
2021/12/05 00:50:11;;;;;;;21.73;5.65;;;4.80;99.90;;;;;;5096329;28;20385;-77
2021/12/05 00:55:35;;;;;;;20.65;6.15;;;4.80;99.90;;;;;;5096187;28;20021;-77
2021/12/05 01:04:28;;;;;;;21.33;4.70;;;4.80;99.90;;;;;;5095067;28;20021;-77
2021/12/05 01:06:46;;;;;;;30.33;5.28;;;4.80;99.90;;;;;;5096051;28;20032;-77
2021/12/05 01:14:34;;;;;;;16.10;4.07;;;4.80;99.90;;;;;;5113657;27;1210819;-73
2021/12/05 01:17:01;;;;;;;19.77;4.75;;;4.80;99.90;;;;;;5114410;28;20147;-73
2021/12/05 01:19:30;;;;;;;15.77;5.18;;;4.80;99.90;;;;;;5113631;28;20426;-72
2021/12/05 01:22:04;;;;;;;18.05;4.82;;;4.80;99.90;;;;;;5132416;27;20054;-73
2021/12/05 01:24:44;;;;;;;14.45;4.32;;;4.80;99.90;;;;;;5132367;27;20038;-73
2021/12/05 01:27:21;;;;;;;14.82;4.72;;;4.80;99.90;;;;;;5132011;27;20016;-73
2021/12/05 01:29:53;;;;;;;14.90;4.35;;;4.80;99.90;;;;;;5115033;28;20020;-73
2021/12/05 01:32:43;;;;;;;16.83;4.70;;;4.80;99.90;;;;;;5131031;28;20460;-73
2021/12/05 01:35:20;;;;;;;16.55;4.68;;;4.80;99.90;;;;;;5131476;28;20022;-72
2021/12/05 01:38:32;;;;;;;15.77;4.68;;;4.80;99.90;;;;;;5130832;28;20058;-73
2021/12/05 01:41:02;;;;;;;18.10;5.20;;;4.90;99.90;;;;;;5130328;28;20020;-73
2021/12/05 01:44:07;;;;;;;16.15;4.90;;;4.90;99.90;;;;;;5116059;28;20027;-72
2021/12/05 01:54:38;;;;;;;22.55;5.00;;;4.80;99.90;;;;;;5115752;28;20475;-72
2021/12/05 01:57:36;;;;;;;17.25;4.55;;;4.70;99.90;;;;;;5115839;28;20032;-73
2021/12/05 02:11:07;;;;;;;16.08;4.13;;;4.40;99.90;;;;;;5112305;27;20819;-72
2021/12/05 02:16:36;;;;;;;18.17;5.20;;;4.30;99.90;;;;;;5110183;28;20423;-72
2021/12/05 02:30:42;;;;;;;20.75;7.00;;;4.10;99.90;;;;;;5109811;28;20028;-72
2021/12/05 02:33:10;;;;;;;23.63;6.80;;;4.10;99.90;;;;;;5109867;28;20026;-72
2021/12/05 02:35:54;;;;;;;23.48;6.45;;;4.00;99.90;;;;;;5109566;28;20385;-72
2021/12/05 02:41:10;;;;;;;23.67;6.13;;;4.00;99.90;;;;;;5110745;28;20024;-72
2021/12/05 02:43:42;;;;;;;25.38;7.75;;;4.00;99.90;;;;;;5111344;28;20041;-72
2021/12/05 02:46:10;;;;;;;25.08;8.13;;;3.80;99.90;;;;;;5093508;28;20426;-72
2021/12/05 02:48:37;;;;;;;22.40;7.85;;;3.80;99.90;;;;;;5109433;28;20104;-72
2021/12/05 02:51:10;;;;;;;25.95;8.57;;;3.80;99.90;;;;;;5093079;28;20020;-72
2021/12/05 02:54:03;;;;;;;20.47;8.03;;;3.90;99.90;;;;;;5092480;28;20114;-72
2021/12/05 02:56:24;;;;;;;24.58;7.53;;;3.90;99.90;;;;;;5110519;28;20031;-72
2021/12/05 02:58:53;;;;;;;23.23;7.82;;;3.80;99.90;;;;;;5093140;28;20032;-72
2021/12/05 03:01:26;;;;;;;23.33;7.93;;;3.90;99.90;;;;;;5110515;28;20031;-72
2021/12/05 03:03:53;;;;;;;26.75;7.68;;;3.90;99.90;;;;;;5109928;28;20036;-72
2021/12/05 03:06:23;;;;;;;18.23;7.10;;;3.90;99.90;;;;;;5092339;28;20092;-72
2021/12/05 03:08:55;;;;;;;24.83;7.50;;;3.90;99.90;;;;;;5109201;28;20447;-72
2021/12/05 03:11:23;;;;;;;19.45;6.72;;;3.90;99.90;;;;;;5092111;28;20028;-72
2021/12/05 03:13:48;;;;;;;21.00;6.82;;;4.00;99.90;;;;;;5110616;28;20043;-73
2021/12/05 03:16:18;;;;;;;27.85;5.55;;;4.00;99.90;;;;;;5110513;28;20028;-72
2021/12/05 03:18:44;;;;;;;17.50;5.65;;;4.00;99.90;;;;;;5092183;28;20028;-71
2021/12/05 03:21:10;;;;;;;16.48;5.70;;;4.00;99.90;;;;;;5102741;28;20030;-72
2021/12/05 03:23:38;;;;;;;21.40;5.65;;;4.10;99.90;;;;;;5078486;28;20031;-72
2021/12/05 03:26:08;;;;;;;16.33;5.13;;;4.10;99.90;;;;;;5095576;28;20457;-71
2021/12/05 03:28:34;;;;;;;22.30;5.45;;;4.20;99.90;;;;;;5095174;28;20046;-72
2021/12/05 03:31:01;;;;;;;20.58;5.72;;;4.20;99.90;;;;;;5095246;28;20071;-72
2021/12/05 03:33:27;;;;;;;11.82;5.63;;;4.20;99.90;;;;;;5095376;28;20016;-72
2021/12/05 03:35:52;;;;;;;22.52;5.45;;;4.20;99.90;;;;;;5078204;28;20165;-72
2021/12/05 03:38:18;;;;;;;27.02;6.68;;;4.20;99.90;;;;;;5096820;28;20020;-72
2021/12/05 03:40:44;;;;;;;19.55;6.18;;;4.20;99.90;;;;;;5095597;28;20423;-72
2021/12/05 03:43:14;;;;;;;20.95;6.03;;;4.20;99.90;;;;;;5096717;28;20411;-71
2021/12/05 03:45:44;;;;;;;29.65;7.22;;;4.30;99.90;;;;;;5095516;28;20024;-72
2021/12/05 03:48:11;;;;;;;19.20;5.28;;;4.50;99.90;;;;;;5094905;28;20125;-72
2021/12/05 03:50:38;;;;;;;16.77;5.35;;;4.50;99.90;;;;;;5095902;28;20035;-71
2021/12/05 03:53:05;;;;;;;19.63;4.60;;;4.50;99.90;;;;;;5095061;28;20110;-72
2021/12/05 03:55:31;;;;;;;19.88;5.25;;;4.60;99.90;;;;;;5094747;28;20469;-72
2021/12/05 03:57:57;;;;;;;21.23;5.05;;;4.60;99.90;;;;;;5094617;28;20027;-71
2021/12/05 04:00:27;;;;;;;13.25;4.80;;;4.50;99.90;;;;;;5095193;28;20499;-72
2021/12/05 04:02:55;;;;;;;18.50;4.88;;;4.50;99.90;;;;;;5078479;28;20052;-72
2021/12/05 04:05:21;;;;;;;20.95;5.30;;;4.50;99.90;;;;;;5094414;28;20035;-71
2021/12/05 04:07:47;;;;;;;20.48;5.35;;;4.50;99.90;;;;;;5077503;28;20028;-72
2021/12/05 04:10:13;;;;;;;15.40;5.40;;;4.50;99.90;;;;;;5095323;28;20063;-72
2021/12/05 04:12:40;;;;;;;17.10;5.18;;;4.60;99.90;;;;;;5077593;28;20024;-72
2021/12/05 04:15:07;;;;;;;23.95;6.20;;;4.60;99.90;;;;;;5094431;28;20016;-72
2021/12/05 04:17:33;;;;;;;29.75;6.88;;;4.60;99.90;;;;;;5095927;28;20487;-72
2021/12/05 04:19:58;;;;;;;19.05;5.03;;;4.60;99.90;;;;;;5094191;28;20024;-72
2021/12/05 04:22:24;;;;;;;21.80;6.25;;;4.60;99.90;;;;;;5094355;28;20114;-72
2021/12/05 04:24:50;;;;;;;17.88;5.30;;;4.60;99.90;;;;;;5094418;28;20024;-72
2021/12/05 04:27:16;;;;;;;18.30;5.40;;;4.50;99.90;;;;;;5095814;28;20024;-72
2021/12/05 04:29:42;;;;;;;19.98;4.88;;;4.50;99.90;;;;;;5095724;28;20369;-72
2021/12/05 04:32:08;;;;;;;20.65;5.55;;;4.50;99.90;;;;;;5093551;28;20024;-72
2021/12/05 04:34:33;;;;;;;24.40;5.43;;;4.50;99.90;;;;;;5093990;28;20038;-72
2021/12/05 04:37:00;;;;;;;17.80;4.72;;;4.50;99.90;;;;;;5093862;28;20024;-72
2021/12/05 04:39:27;;;;;;;19.50;5.10;;;4.50;99.90;;;;;;5095019;28;20085;-72
2021/12/05 04:41:54;;;;;;;18.65;5.38;;;4.60;99.90;;;;;;5095527;28;20020;-72
2021/12/05 04:44:22;;;;;;;19.38;5.13;;;4.60;99.90;;;;;;5093696;28;20024;-72
2021/12/05 04:46:48;;;;;;;17.30;5.47;;;4.60;99.90;;;;;;5095434;28;20019;-72
2021/12/05 04:49:15;;;;;;;20.52;5.60;;;4.60;99.90;;;;;;5093472;28;20024;-72
2021/12/05 04:51:43;;;;;;;18.08;5.18;;;4.60;99.90;;;;;;5095096;28;20050;-72
2021/12/05 04:54:12;;;;;;;18.35;5.22;;;4.60;99.90;;;;;;5093857;28;20029;-72
2021/12/05 04:56:37;;;;;;;19.00;4.93;;;4.50;99.90;;;;;;5095234;28;20407;-72
2021/12/05 04:59:12;;;;;;;28.70;5.05;;;4.60;99.90;;;;;;5094929;28;20036;-72
2021/12/05 05:01:38;;;;;;;15.90;4.90;;;4.50;99.90;;;;;;5077281;28;20031;-72
2021/12/05 05:04:09;;;;;;;20.25;5.05;;;4.50;99.90;;;;;;5094151;28;20028;-72
2021/12/05 05:06:35;;;;;;;17.38;5.72;;;4.60;99.90;;;;;;5095105;28;20020;-72
2021/12/05 05:09:01;;;;;;;17.73;4.90;;;4.50;99.90;;;;;;5092970;28;20515;-72
2021/12/05 05:11:26;;;;;;;18.25;5.18;;;4.50;99.90;;;;;;5093542;28;20027;-72
2021/12/05 05:13:52;;;;;;;17.35;4.90;;;4.50;99.90;;;;;;5076324;28;20054;-72
2021/12/05 05:16:21;;;;;;;20.90;4.93;;;4.50;99.90;;;;;;5093764;28;20028;-72
2021/12/05 05:18:51;;;;;;;17.55;4.47;;;4.60;99.90;;;;;;5077485;28;20111;-72
2021/12/05 05:21:35;;;;;;;17.30;5.07;;;4.50;99.90;;;;;;5093388;28;20381;-72
2021/12/05 05:24:19;;;;;;;;;;;4.50;99.90;;;;;;5079066;28;20020;-72
2021/12/05 05:27:09;;;;;;;19.33;4.97;;;4.50;99.90;;;;;;5078607;28;20003;-72
2021/12/05 05:39:15;;;;;;;13.10;4.53;;;4.30;99.90;;;;;;5094014;28;20024;-72
2021/12/05 05:40:45;;;;;;;17.85;4.68;;;4.10;99.90;;;;;;5093831;28;20031;-72
2021/12/05 05:43:19;;;;;;;15.27;5.20;;;4.10;99.90;;;;;;5093116;28;20022;-72
2021/12/05 05:45:56;;;;;;;22.17;6.38;;;4.00;99.90;;;;;;5093114;28;20388;-72
2021/12/05 05:51:09;;;;;;;23.20;7.10;;;3.90;99.90;;;;;;5092692;28;20115;-72
2021/12/05 05:53:36;;;;;;;22.38;7.20;;;3.90;99.90;;;;;;5092883;28;20024;-72
2021/12/05 05:56:03;;;;;;;15.02;6.82;;;3.80;99.90;;;;;;5092513;28;20468;-72
2021/12/05 05:58:40;;;;;;;15.43;6.43;;;3.80;99.90;;;;;;5092838;28;20484;-72
2021/12/05 06:01:14;;;;;;;21.42;6.20;;;3.80;99.90;;;;;;5092617;28;20136;-72
2021/12/05 06:03:40;;;;;;;24.13;6.00;;;3.90;99.90;;;;;;5093939;28;20377;-72
2021/12/05 06:06:09;;;;;;;15.00;4.93;;;3.90;99.90;;;;;;5093003;28;20031;-72
2021/12/05 06:08:37;;;;;;;17.13;4.05;;;3.90;99.90;;;;;;5093858;28;20028;-72
2021/12/05 06:11:07;;;;;;;19.38;5.13;;;3.90;99.90;;;;;;5092429;28;20113;-72
2021/12/05 06:13:34;;;;;;;19.02;4.32;;;3.90;99.90;;;;;;5092683;28;20020;-72
2021/12/05 06:16:00;;;;;;;14.77;3.88;;;3.80;99.90;;;;;;5092950;28;20017;-72
2021/12/05 06:18:26;;;;;;;13.68;3.80;;;3.90;99.90;;;;;;5094058;28;20453;-72
2021/12/05 06:20:53;;;;;;;20.95;3.00;;;3.90;99.90;;;;;;5092921;28;20384;-72
2021/12/05 06:23:19;;;;;;;17.08;3.45;;;3.90;99.90;;;;;;5092505;28;20028;-72
2021/12/05 06:25:48;;;;;;;12.88;3.35;;;3.90;99.90;;;;;;5093460;28;20035;-72
2021/12/05 06:28:16;;;;;;;13.40;2.92;;;3.90;99.90;;;;;;5092299;28;20031;-72
2021/12/05 06:31:10;;;;;;;19.25;3.75;;;3.80;99.90;;;;;;5093643;28;20049;-72
2021/12/05 06:39:19;;;;;;;13.10;3.20;;;3.90;99.90;;;;;;5093262;28;20103;-72
2021/12/05 06:47:23;;;;;;;10.88;3.70;;;3.90;99.90;;;;;;5092063;28;20024;-72
2021/12/05 06:49:49;;;;;;;11.70;3.67;;;3.90;99.90;;;;;;5092297;28;20103;-72
2021/12/05 06:52:15;;;;;;;15.75;4.90;;;3.90;99.90;;;;;;5093470;28;20027;-72
2021/12/05 06:54:41;;;;;;;14.50;3.50;;;4.00;99.90;;;;;;5093506;28;20020;-72
2021/12/05 06:57:08;;;;;;;13.23;3.45;;;4.00;99.90;;;;;;5094793;28;20233;-72
2021/12/05 06:59:37;;;;;;;18.67;4.15;;;3.90;99.90;;;;;;5095802;28;20460;-72
2021/12/05 07:02:03;;;;;;;12.70;4.25;;;4.00;99.90;;;;;;5096063;28;20097;-72
2021/12/05 07:07:21;;;;;;;14.75;4.57;;;4.00;99.90;;;;;;5095707;28;20032;-73
2021/12/05 07:09:48;;;;;;;14.90;3.97;;;4.00;99.90;;;;;;5095610;28;20120;-72
2021/12/05 07:12:50;;;;;;;18.90;4.80;;;4.10;99.90;;;;;;5097053;28;20027;-72
2021/12/05 07:15:07;;;;;;;10.95;4.22;;;4.10;99.90;;;;;;5096597;28;20051;-72
2021/12/05 07:20:37;;;;;;;24.73;4.53;;;4.10;99.90;;;;;;5096879;28;20461;-72
2021/12/05 07:23:15;;;;;;;21.50;6.25;;;4.10;99.90;;;;;;5096464;28;20028;-72
2021/12/05 07:25:47;;;;;;;16.90;5.28;;;4.10;99.90;;;;;;5096320;28;20380;-72
2021/12/05 07:42:04;;;;;;;12.20;5.25;;;4.20;99.90;;;;;;5095991;28;20016;-72
2021/12/05 07:44:30;;;;;;;11.15;4.78;;;4.20;99.90;;;;;;5096539;28;20020;-72
2021/12/05 07:46:57;;;;;;;15.00;5.47;;;4.20;99.90;;;;;;5095193;28;20054;-72
2021/12/05 07:49:23;;;;;;;19.05;7.05;;;4.30;99.90;;;;;;5094742;28;20028;-72
2021/12/05 07:51:49;;;;;;;22.40;7.55;;;4.30;99.90;;;;;;5094746;28;20465;-72
2021/12/05 07:54:32;;;;;;;14.05;6.47;;;4.30;99.90;;;;;;5096448;28;20047;-72
2021/12/05 07:57:14;;;;;;;17.65;5.57;;;4.30;99.90;;;;;;5095092;28;20020;-72
2021/12/05 08:00:07;;;;;;;17.20;4.18;;;4.40;99.90;;;;;;5096296;28;20020;-72
2021/12/05 08:16:17;;;;;;;19.10;4.63;;;4.30;99.90;;;;;;5095373;28;20409;-72
2021/12/05 08:18:43;;;;;;;19.27;4.90;;;4.40;99.90;;;;;;5094923;28;20143;-72
2021/12/05 08:21:11;;;;;;;20.23;3.65;;;4.40;99.90;;;;;;5094487;28;20039;-72
2021/12/05 08:23:37;;;;;;;14.10;2.95;;;4.40;99.90;;;;;;5094943;28;20035;-72
2021/12/05 08:26:08;;;;;;;8.63;3.13;;;4.40;99.90;;;;;;5095858;28;20478;-72
2021/12/05 08:28:56;;;;;;;7.45;3.00;;;4.40;99.90;;;;;;5094418;28;20024;-72
2021/12/05 08:31:34;;;;;;;10.73;3.15;;;4.50;99.90;;;;;;5094142;28;20473;-71
2021/12/05 08:34:21;;;;;;;13.57;3.85;;;4.50;99.90;;;;;;5094682;28;20488;-71
2021/12/05 08:37:21;;;;;;;9.07;2.42;;;4.60;99.90;;;;;;5095040;28;20164;-72
2021/12/05 08:40:15;;;;;;;6.90;2.70;;;4.60;99.90;;;;;;5093965;28;20020;-72
2021/12/05 08:45:58;;;;;;;11.82;2.70;;;4.70;99.90;;;;;;5093818;28;20055;-72
2021/12/05 10:02:47;;;;;;;10.35;3.28;;;5.40;99.90;;;;;;5092394;28;20443;-72
2021/12/05 10:08:30;;;;;;;4.82;2.70;;;5.30;99.90;;;;;;5092702;28;20017;-72
2021/12/05 10:11:06;;;;;;;11.05;2.90;;;5.20;99.90;;;;;;5093301;28;20052;-72
2021/12/05 10:13:52;;;;;;;7.68;2.97;;;5.20;99.90;;;;;;5093016;28;20012;-72
2021/12/05 10:16:43;;;;;;;7.55;2.95;;;5.30;99.90;;;;;;5092337;28;20027;-72
2021/12/05 10:19:40;;;;;;;8.57;3.20;;;5.30;99.90;;;;;;5094051;28;20039;-72
2021/12/05 10:33:42;;;;;;;8.63;3.05;;;5.60;99.90;;;;;;5096312;28;20024;-72
2021/12/05 10:38:50;;;;;;;11.57;3.63;;;5.80;99.90;;;;;;5071565;28;20391;-72
2021/12/05 10:41:26;;;;;;;10.00;3.22;;;5.90;99.90;;;;;;5070795;28;20025;-72
2021/12/05 10:43:56;;;;;;;8.63;2.85;;;6.00;99.90;;;;;;5069894;28;20027;-72
2021/12/05 10:46:24;;;;;;;5.00;2.53;;;6.10;99.90;;;;;;5070918;28;20021;-72
2021/12/05 10:49:09;;;;;;;6.22;2.70;;;6.10;99.90;;;;;;5069667;28;20443;-72
2021/12/05 10:54:21;;;;;;;7.38;2.42;;;6.20;99.90;;;;;;5071542;28;20860;-72
2021/12/05 10:56:52;;;;;;;6.43;2.55;;;6.30;99.90;;;;;;5071294;28;20103;-73
2021/12/05 10:59:35;;;;;;;5.85;2.40;;;6.30;99.90;;;;;;5052955;28;20078;-72
2021/12/05 11:02:04;;;;;;;4.70;1.90;;;6.30;99.90;;;;;;5070148;28;20024;-72
2021/12/05 11:04:33;;;;;;;8.10;2.72;;;6.30;99.90;;;;;;5069696;28;20048;-72
2021/12/05 11:07:08;;;;;;;6.78;2.58;;;6.40;99.90;;;;;;5071053;28;20493;-71
2021/12/05 11:09:37;;;;;;;10.20;2.90;;;6.40;99.90;;;;;;5053030;28;20071;-71
2021/12/05 11:12:24;;;;;;;5.45;2.97;;;6.50;99.90;;;;;;5070920;28;20447;-72
2021/12/05 11:14:55;;;;;;;10.00;2.40;;;6.50;99.90;;;;;;5069555;28;20462;-72
2021/12/05 11:17:26;;;;;;;6.68;2.30;;;6.50;99.90;;;;;;5070950;28;20044;-72
2021/12/05 11:20:00;;;;;;;6.10;2.35;;;6.50;99.90;;;;;;5069464;28;20021;-72
2021/12/05 11:22:29;;;;;;;5.15;2.88;;;6.60;99.90;;;;;;5052907;28;20449;-72
2021/12/05 11:25:00;;;;;;;8.98;2.50;;;6.60;99.90;;;;;;5068945;28;20390;-72
2021/12/05 11:30:19;;;;;;;8.75;2.40;;;6.70;99.90;;;;;;5112241;27;20358;-71
2021/12/05 11:32:50;;;;;;;4.05;2.50;;;6.70;99.90;;;;;;5110085;28;20609;-72
2021/12/05 11:38:07;;;;;;;4.45;1.95;;;6.70;99.90;;;;;;5071502;28;20411;-72
2021/12/05 11:40:56;;;;;;;7.55;2.50;;;6.60;99.90;;;;;;5071358;28;20455;-72
2021/12/05 11:43:28;;;;;;;7.03;2.20;;;6.60;99.90;;;;;;5069445;28;20017;-72
2021/12/05 11:46:31;;;;;;;4.95;2.28;;;6.60;99.90;;;;;;5070966;28;20023;-72
2021/12/05 11:49:03;;;;;;;7.72;2.85;;;6.50;99.90;;;;;;5052778;28;20029;-72
2021/12/05 11:57:02;;;;;;;6.07;2.28;;;6.50;99.90;;;;;;5112172;27;20355;-72
2021/12/05 12:02:12;;;;;;;6.55;2.38;;;6.40;99.90;;;;;;5091838;28;20402;-72
2021/12/05 12:04:54;;;;;;;4.60;2.40;;;6.40;99.90;;;;;;5091500;28;20070;-72
2021/12/05 12:10:23;;;;;;;9.05;2.53;;;6.40;99.90;;;;;;5112087;27;20287;-72
2021/12/05 12:12:54;;;;;;;3.53;2.60;;;6.20;99.90;;;;;;5110254;28;20028;-72
2021/12/05 12:15:21;;;;;;;6.97;2.90;;;6.30;99.90;;;;;;5111865;28;20460;-72
2021/12/05 12:17:49;;;;;;;6.43;2.60;;;6.30;99.90;;;;;;5110324;28;20073;-72
2021/12/05 12:20:21;;;;;;;3.60;2.30;;;6.20;99.90;;;;;;5111512;28;20016;-72
2021/12/05 12:22:47;;;;;;;5.90;2.72;;;6.30;99.90;;;;;;5109950;28;20028;-73
2021/12/05 12:25:17;;;;;;;8.57;3.30;;;6.20;99.90;;;;;;5093479;28;20118;-72
2021/12/05 12:27:45;;;;;;;5.78;2.42;;;6.20;99.90;;;;;;5110960;28;20027;-73
2021/12/05 12:30:13;;;;;;;5.80;2.28;;;6.20;99.90;;;;;;5111031;28;20373;-72
2021/12/05 12:32:45;;;;;;;4.82;2.40;;;6.20;99.90;;;;;;5110159;28;20035;-73
2021/12/05 12:35:16;;;;;;;8.68;3.22;;;6.30;99.90;;;;;;5111163;28;20028;-73
2021/12/05 12:38:08;;;;;;;7.22;2.88;;;6.30;99.90;;;;;;5109969;28;20369;-72
2021/12/05 12:40:52;;;;;;;6.20;1.83;;;6.30;99.90;;;;;;5109463;28;20066;-72
2021/12/05 12:43:41;;;;;;;3.75;2.28;;;6.20;99.90;;;;;;5109769;28;20031;-72
2021/12/05 12:46:33;;;;;;;7.55;3.00;;;6.20;99.90;;;;;;5110681;28;20031;-72
2021/12/05 12:49:21;;;;;;;5.88;2.40;;;6.20;99.90;;;;;;5110584;28;20464;-72
2021/12/05 12:52:09;;;;;;;4.55;2.42;;;6.10;99.90;;;;;;5110502;28;20384;-72
2021/12/05 12:54:55;;;;;;;3.78;2.15;;;6.10;99.90;;;;;;5109377;28;20024;-71
2021/12/05 12:57:26;;;;;;;4.03;1.98;;;6.00;99.90;;;;;;5109179;28;20020;-72
2021/12/05 13:00:02;;;;;;;9.15;2.72;;;6.00;99.90;;;;;;5110687;28;20024;-72
2021/12/05 13:11:00;;;;;;;6.72;3.47;;;5.90;99.90;;;;;;5131571;28;20027;-72
2021/12/05 13:13:28;;;;;;;6.35;2.03;;;5.90;99.90;;;;;;5113379;28;20023;-72
2021/12/05 13:16:00;;;;;;;6.22;2.42;;;5.80;99.90;;;;;;5131967;28;20023;-72
2021/12/05 13:18:31;;;;;;;7.60;2.90;;;5.80;99.90;;;;;;5113037;28;20100;-72
2021/12/05 13:21:02;;;;;;;6.25;3.20;;;5.80;99.90;;;;;;5131429;28;20020;-72
2021/12/05 13:23:37;;;;;;;6.03;2.47;;;5.80;99.90;;;;;;5096515;28;20023;-72
2021/12/05 13:26:09;;;;;;;9.77;4.80;;;5.80;99.90;;;;;;5096257;28;20031;-72
2021/12/05 13:28:43;;;;;;;10.90;5.05;;;5.80;99.90;;;;;;5096741;28;20028;-72
2021/12/05 13:31:32;;;;;;;9.40;3.38;;;5.80;99.90;;;;;;5096988;28;20036;-72
2021/12/05 13:34:20;;;;;;;8.18;3.92;;;5.70;99.90;;;;;;5131392;28;20031;-72
2021/12/05 13:37:09;;;;;;;8.18;3.70;;;5.70;99.90;;;;;;5113195;28;20028;-72
2021/12/05 13:40:01;;;;;;;13.15;4.03;;;5.70;99.90;;;;;;5115804;28;20361;-72
2021/12/05 13:42:48;;;;;;;5.63;2.70;;;5.70;99.90;;;;;;5112576;28;20115;-72
2021/12/05 13:45:43;;;;;;;5.47;2.95;;;5.60;99.90;;;;;;5095863;28;20024;-72
2021/12/05 13:48:15;;;;;;;4.45;2.70;;;5.60;99.90;;;;;;5114704;28;20080;-72
2021/12/05 13:50:45;;;;;;;7.83;3.33;;;5.60;99.90;;;;;;5131099;28;20022;-72
2021/12/05 13:56:02;;;;;;;8.07;2.58;;;5.60;99.90;;;;;;5111959;27;20290;-72
2021/12/05 13:58:38;;;;;;;4.43;2.35;;;5.50;99.90;;;;;;5093164;28;20030;-72
2021/12/05 14:01:26;;;;;;;5.88;3.08;;;5.50;99.90;;;;;;5111376;28;20508;-72
2021/12/05 14:07:05;;;;;;;8.63;4.43;;;5.50;99.90;;;;;;5111798;27;20437;-72
2021/12/05 14:12:13;;;;;;;13.65;5.57;;;5.50;99.90;;;;;;5114816;27;1166285;-72
2021/12/05 14:14:44;;;;;;;8.35;3.50;;;5.40;99.90;;;;;;5130986;28;20106;-72
2021/12/05 14:17:15;;;;;;;7.22;3.58;;;5.40;99.90;;;;;;5130683;28;20023;-72
2021/12/05 14:19:44;;;;;;;10.15;4.53;;;5.40;99.90;;;;;;5114279;28;20052;-72
2021/12/05 14:22:12;;;;;;;8.45;5.18;;;5.40;99.90;;;;;;5096336;28;20507;-71
2021/12/05 14:24:43;;;;;;;9.90;4.57;;;5.30;99.90;;;;;;5130133;28;20421;-71
2021/12/05 14:27:13;;;;;;;23.35;10.48;;;5.30;99.90;;;;;;5131773;27;20464;-71
2021/12/05 14:29:40;;;;;;;15.95;7.47;;;5.30;99.90;;;;;;5113330;28;20031;-72
2021/12/05 14:32:11;;;;;;;14.82;7.28;;;5.30;99.90;;;;;;5129829;28;20035;-72
2021/12/05 14:34:39;;;;;;;14.18;8.27;;;5.30;99.90;;;;;;5129967;28;20027;-72
2021/12/05 14:37:10;;;;;;;12.48;6.47;;;5.30;99.90;;;;;;5129622;28;20023;-72
2021/12/05 14:39:40;;;;;;;12.98;5.60;;;5.30;99.90;;;;;;5096004;28;20368;-72
2021/12/05 14:42:10;;;;;;;9.80;4.88;;;5.30;99.90;;;;;;5130066;28;20125;-72
2021/12/05 14:44:37;;;;;;;8.88;4.38;;;5.30;99.90;;;;;;5112904;28;20492;-72
2021/12/05 14:47:10;;;;;;;11.77;6.40;;;5.30;99.90;;;;;;5112851;28;20379;-72
2021/12/05 14:49:40;;;;;;;10.95;7.03;;;5.30;99.90;;;;;;5112836;28;20088;-72
2021/12/05 14:52:11;;;;;;;10.32;6.03;;;5.20;99.90;;;;;;5131086;27;20452;-72
2021/12/05 14:54:39;;;;;;;8.93;5.30;;;5.20;99.90;;;;;;5130085;28;20020;-72
2021/12/05 14:57:12;;;;;;;9.82;6.32;;;5.20;99.90;;;;;;5129503;28;20027;-72
2021/12/05 14:59:40;;;;;;;10.02;5.97;;;5.20;99.90;;;;;;5112266;28;20020;-72
2021/12/05 15:02:07;;;;;;;10.02;6.00;;;5.20;99.90;;;;;;5129103;28;20491;-72
2021/12/05 15:04:39;;;;;;;10.95;6.00;;;5.20;99.90;;;;;;5130433;27;20377;-72
2021/12/05 15:07:06;;;;;;;10.20;5.80;;;5.20;99.90;;;;;;5129897;28;20076;-72
2021/12/05 15:09:36;;;;;;;8.52;5.22;;;5.10;99.90;;;;;;5129332;28;20585;-72
2021/12/05 15:12:06;;;;;;;8.73;4.72;;;5.10;99.90;;;;;;5111493;28;20047;-72
2021/12/05 15:14:35;;;;;;;7.72;5.50;;;5.10;99.90;;;;;;5130688;27;20023;-72
2021/12/05 15:17:07;;;;;;;8.32;5.65;;;5.00;99.90;;;;;;5111848;28;20066;-72
2021/12/05 15:19:33;;;;;;;9.43;5.15;;;5.00;99.90;;;;;;5112472;28;20476;-72
2021/12/05 15:22:01;;;;;;;10.02;4.82;;;5.00;99.90;;;;;;5124608;28;20027;-72
2021/12/05 15:24:28;;;;;;;9.82;4.55;;;5.00;99.90;;;;;;5098226;28;20027;-72
2021/12/05 15:26:56;;;;;;;8.13;5.00;;;5.00;99.90;;;;;;5116517;28;20051;-72
2021/12/05 15:29:23;;;;;;;12.25;6.20;;;4.90;99.90;;;;;;5098499;28;20476;-72
2021/12/05 15:31:49;;;;;;;8.82;5.97;;;4.90;99.90;;;;;;5116842;28;20058;-70
2021/12/05 15:34:33;;;;;;;13.20;6.68;;;4.90;99.90;;;;;;5116475;28;20059;-72
2021/12/05 15:37:07;;;;;;;19.30;9.23;;;4.90;99.90;;;;;;5115138;28;20361;-71
2021/12/05 15:39:33;;;;;;;14.40;8.15;;;4.90;99.90;;;;;;5098490;28;20030;-71
2021/12/05 15:42:00;;;;;;;16.17;8.57;;;4.90;99.90;;;;;;5115652;28;20384;-71
2021/12/05 15:44:29;;;;;;;12.88;7.47;;;4.90;99.90;;;;;;5115409;28;20024;-72
2021/12/05 15:47:14;;;;;;;11.70;7.07;;;4.90;99.90;;;;;;5097901;28;20027;-72
2021/12/05 15:50:00;;;;;;;17.27;8.20;;;4.90;99.90;;;;;;5115383;28;20027;-72
2021/12/05 15:52:35;;;;;;;15.80;9.85;;;4.90;99.90;;;;;;5116141;28;20035;-71
2021/12/05 15:55:04;;;;;;;19.60;11.68;;;5.00;99.90;;;;;;5115218;28;20070;-70
2021/12/05 15:57:35;;;;;;;19.10;9.80;;;5.10;99.90;;;;;;5116088;28;20108;-71
2021/12/05 16:00:07;;;;;;;18.20;9.43;;;5.10;99.90;;;;;;5114719;28;20019;-72
2021/12/05 16:02:33;;;;;;;22.83;10.65;;;5.10;99.90;;;;;;5115777;28;20076;-72
2021/12/05 16:04:59;;;;;;;28.77;12.20;;;5.00;99.90;;;;;;5097401;28;20024;-72
2021/12/05 16:07:27;;;;;;;14.45;8.68;;;4.90;99.90;;;;;;5114571;28;20047;-71
2021/12/05 16:10:08;;;;;;;15.65;7.60;;;5.00;99.90;;;;;;5115184;28;20020;-72
2021/12/05 16:12:38;;;;;;;16.10;8.32;;;5.00;99.90;;;;;;5116403;28;20358;-72
2021/12/05 16:15:04;;;;;;;12.68;7.38;;;5.00;99.90;;;;;;5115256;28;20092;-72
2021/12/05 16:17:30;;;;;;;17.27;9.02;;;4.90;99.90;;;;;;5114850;28;20081;-72
2021/12/05 16:20:18;;;;;;;13.27;8.40;;;4.90;99.90;;;;;;5097846;28;20054;-72
2021/12/05 16:23:13;;;;;;;16.42;8.73;;;4.80;99.90;;;;;;5097524;28;20106;-72
2021/12/05 16:25:45;;;;;;;16.25;6.90;;;4.80;99.90;;;;;;5115750;28;20102;-72
2021/12/05 16:28:13;;;;;;;13.20;8.15;;;4.90;99.90;;;;;;5114679;28;20053;-72
2021/12/05 16:30:44;;;;;;;11.13;7.15;;;4.90;99.90;;;;;;5097759;28;20030;-72
2021/12/05 16:33:13;;;;;;;10.27;6.50;;;4.90;99.90;;;;;;5114291;28;20011;-72
2021/12/05 16:35:50;;;;;;;9.40;6.03;;;4.80;99.90;;;;;;5113684;28;20438;-72
2021/12/05 16:38:21;;;;;;;8.70;6.40;;;4.80;99.90;;;;;;5114543;28;20024;-71
2021/12/05 16:40:55;;;;;;;11.23;7.50;;;4.80;99.90;;;;;;5097780;28;20491;-72
2021/12/05 16:43:20;;;;;;;13.10;7.05;;;4.80;99.90;;;;;;5114463;28;20402;-72
2021/12/05 16:45:46;;;;;;;11.60;7.13;;;4.80;99.90;;;;;;5114378;28;20460;-71
2021/12/05 16:48:15;;;;;;;15.02;8.32;;;4.70;99.90;;;;;;5115742;28;20498;-71
2021/12/05 16:50:41;;;;;;;11.32;7.88;;;4.70;99.90;;;;;;5113827;28;20032;-72
2021/12/05 16:53:07;;;;;;;13.50;7.88;;;4.60;99.90;;;;;;5113964;28;20133;-71
2021/12/05 16:55:34;;;;;;;13.25;8.63;;;4.60;99.90;;;;;;5113858;28;20099;-72
2021/12/05 16:58:17;;;;;;;11.02;8.10;;;4.60;99.90;;;;;;5114387;28;20023;-72
2021/12/05 17:00:49;;;;;;;12.98;8.70;;;4.40;99.90;;;;;;5115516;27;20460;-71
2021/12/05 17:03:20;;;;;;;11.75;7.57;;;4.30;99.90;;;;;;5115488;27;20460;-71
2021/12/05 17:05:48;;;;;;;19.23;8.63;;;4.30;99.90;;;;;;5114456;28;20047;-71
2021/12/05 17:08:20;;;;;;;13.20;8.43;;;4.20;99.90;;;;;;5114834;28;20020;-71
2021/12/05 17:11:05;;;;;;;14.90;8.57;;;4.20;99.90;;;;;;5080151;28;20044;-72
2021/12/05 17:13:37;;;;;;;13.20;8.27;;;4.10;99.90;;;;;;5113491;28;20023;-72
2021/12/05 17:16:09;;;;;;;11.88;8.07;;;4.10;99.90;;;;;;5113854;28;20107;-72
2021/12/05 17:18:43;;;;;;;16.67;9.25;;;4.00;99.90;;;;;;5114111;28;20027;-72
2021/12/05 17:21:21;;;;;;;18.05;11.98;;;4.00;99.90;;;;;;5114079;28;20020;-71
2021/12/05 17:23:52;;;;;;;15.15;8.70;;;4.00;99.90;;;;;;5113967;28;20030;-71
2021/12/05 17:26:36;;;;;;;14.73;10.50;;;3.90;99.90;;;;;;5079706;28;20027;-71
2021/12/05 17:29:06;;;;;;;17.42;12.05;;;3.80;99.90;;;;;;5115087;28;20551;-71
2021/12/05 17:31:38;;;;;;;19.67;12.15;;;3.70;99.90;;;;;;5114877;28;20038;-71
2021/12/05 17:34:09;;;;;;;20.35;13.63;;;3.60;99.90;;;;;;5096411;28;20016;-72
2021/12/05 17:36:40;;;;;;;20.08;13.45;;;3.50;99.90;;;;;;5096186;28;20055;-71
2021/12/05 17:39:17;;;;;;;21.63;13.52;;;3.60;99.90;;;;;;5114604;28;20022;-71
2021/12/05 17:41:49;;;;;;;19.15;12.48;;;3.50;99.90;;;;;;5113059;28;20100;-72
2021/12/05 17:44:18;;;;;;;16.70;12.35;;;3.50;99.90;;;;;;5113028;28;20023;-71
2021/12/05 17:46:46;;;;;;;20.63;13.35;;;3.50;99.90;;;;;;5114536;28;20036;-72